createdAt,value
2022-10-18T00:00:40.108Z,13.12
2022-10-18T00:03:09.805Z,13.11
2022-10-18T00:05:36.410Z,13.06
2022-10-18T00:08:03.082Z,13.01
2022-10-18T00:10:32.148Z,12.98
2022-10-18T00:12:58.787Z,13.00
2022-10-18T00:15:30.525Z,12.94
2022-10-18T00:17:57.061Z,12.96
2022-10-18T00:20:25.832Z,12.96
2022-10-18T00:22:52.568Z,12.94
2022-10-18T00:25:19.236Z,12.92
2022-10-18T00:27:45.783Z,12.98
2022-10-18T00:30:12.441Z,12.99
2022-10-18T00:32:42.350Z,13.04
2022-10-18T00:35:11.406Z,13.06
2022-10-18T00:37:38.065Z,13.07
2022-10-18T00:40:07.314Z,13.09
2022-10-18T00:42:37.891Z,12.99
2022-10-18T00:45:14.493Z,13.03
2022-10-18T00:47:42.392Z,13.00
2022-10-18T00:50:11.646Z,13.05
2022-10-18T00:52:44.123Z,13.05
2022-10-18T00:55:11.585Z,12.98
2022-10-18T00:57:41.788Z,13.08
2022-10-18T01:00:11.570Z,13.01
2022-10-18T01:02:41.625Z,13.05
2022-10-18T01:05:15.253Z,13.08
2022-10-18T01:07:41.752Z,13.12
2022-10-18T01:10:35.459Z,13.11
2022-10-18T01:13:08.834Z,13.02
2022-10-18T01:15:59.519Z,13.00
2022-10-18T01:18:37.897Z,13.06
2022-10-18T01:21:23.175Z,13.08
2022-10-18T01:24:17.089Z,13.08
2022-10-18T01:27:01.902Z,13.11
2022-10-18T01:29:35.008Z,13.13
2022-10-18T01:32:10.361Z,13.10
2022-10-18T01:34:40.439Z,13.12
2022-10-18T01:37:09.779Z,13.12
2022-10-18T01:39:40.065Z,13.08
2022-10-18T01:42:10.407Z,13.12
2022-10-18T01:44:39.280Z,13.11
2022-10-18T01:47:11.919Z,13.09
2022-10-18T01:49:38.446Z,13.11
2022-10-18T01:52:09.506Z,13.09
2022-10-18T01:54:39.507Z,13.10
2022-10-18T01:57:16.220Z,13.09
2022-10-18T01:59:45.703Z,13.09
2022-10-18T02:02:41.347Z,13.06
2022-10-18T02:05:17.223Z,12.99
2022-10-18T02:07:43.830Z,12.97
2022-10-18T02:10:22.342Z,12.95
2022-10-18T02:12:52.487Z,12.88
2022-10-18T02:15:30.404Z,12.85
2022-10-18T02:17:57.838Z,12.77
2022-10-18T02:20:29.416Z,12.77
2022-10-18T02:23:00.559Z,12.73
2022-10-18T02:25:30.333Z,12.72
2022-10-18T02:27:59.339Z,12.71
2022-10-18T02:30:43.479Z,12.64
2022-10-18T02:33:18.099Z,12.43
2022-10-18T02:35:53.343Z,12.60
2022-10-18T02:38:23.594Z,12.59
2022-10-18T02:40:50.400Z,12.55
2022-10-18T02:43:16.940Z,12.48
2022-10-18T02:45:43.975Z,12.46
2022-10-18T02:48:10.849Z,12.44
2022-10-18T02:50:42.481Z,12.45
2022-10-18T02:53:11.300Z,12.44
2022-10-18T02:55:37.874Z,12.45
2022-10-18T02:58:04.409Z,12.42
2022-10-18T03:00:33.423Z,12.39
2022-10-18T03:03:00.161Z,12.43
2022-10-18T03:05:29.168Z,12.45
2022-10-18T03:08:01.217Z,12.38
2022-10-18T03:10:30.577Z,12.44
2022-10-18T03:13:00.082Z,12.45
2022-10-18T03:15:28.979Z,12.44
2022-10-18T03:17:55.626Z,12.45
2022-10-18T03:20:25.257Z,12.46
2022-10-18T03:22:51.795Z,12.45
2022-10-18T03:25:18.497Z,12.42
2022-10-18T03:27:44.974Z,12.40
2022-10-18T03:30:14.170Z,12.43
2022-10-18T03:32:41.065Z,12.44
2022-10-18T03:35:09.356Z,12.47
2022-10-18T03:37:36.245Z,12.42
2022-10-18T03:40:03.540Z,12.42
2022-10-18T03:42:30.419Z,12.40
2022-10-18T03:44:57.629Z,12.34
2022-10-18T03:47:24.170Z,12.23
2022-10-18T03:49:53.225Z,12.25
2022-10-18T03:52:22.846Z,12.27
2022-10-18T03:54:49.421Z,12.22
2022-10-18T03:57:18.167Z,12.22
2022-10-18T03:59:44.695Z,12.13
2022-10-18T04:02:11.273Z,12.06
2022-10-18T04:04:37.792Z,11.99
2022-10-18T04:07:04.438Z,11.96
2022-10-18T04:09:31.061Z,11.99
2022-10-18T04:12:00.417Z,11.96
2022-10-18T04:14:29.650Z,11.98
2022-10-18T04:16:59.061Z,11.91
2022-10-18T04:19:25.639Z,11.93
2022-10-18T04:21:52.548Z,11.88
2022-10-18T04:24:19.500Z,11.93
2022-10-18T04:26:48.372Z,11.93
2022-10-18T04:29:19.726Z,11.93
2022-10-18T04:31:46.341Z,11.93
2022-10-18T04:34:12.986Z,11.86
2022-10-18T04:36:39.614Z,11.67
2022-10-18T04:39:08.871Z,11.76
2022-10-18T04:41:38.375Z,11.72
2022-10-18T04:44:05.081Z,11.71
2022-10-18T04:46:31.594Z,11.68
2022-10-18T04:48:58.496Z,11.70
2022-10-18T04:51:27.339Z,11.65
2022-10-18T04:53:56.322Z,11.80
2022-10-18T04:56:23.233Z,11.84
2022-10-18T04:58:52.218Z,11.87
2022-10-18T05:01:19.192Z,11.89
2022-10-18T05:03:51.705Z,11.88
2022-10-18T05:06:18.592Z,11.89
2022-10-18T05:08:47.359Z,11.92
2022-10-18T05:11:14.222Z,11.91
2022-10-18T05:13:46.011Z,11.97
2022-10-18T05:16:17.422Z,11.97
2022-10-18T05:18:44.167Z,11.95
2022-10-18T05:21:12.363Z,11.80
2022-10-18T05:23:39.556Z,11.89
2022-10-18T05:26:09.011Z,11.89
2022-10-18T05:28:40.552Z,11.87
2022-10-18T05:31:12.155Z,11.81
2022-10-18T05:33:41.918Z,11.69
2022-10-18T05:36:09.336Z,11.66
2022-10-18T05:38:40.121Z,11.64
2022-10-18T05:41:07.038Z,11.58
2022-10-18T05:43:35.807Z,11.63
2022-10-18T05:46:02.436Z,11.60
2022-10-18T05:48:28.990Z,11.61
2022-10-18T05:50:58.952Z,11.62
2022-10-18T05:53:36.806Z,11.66
2022-10-18T05:56:06.904Z,11.68
2022-10-18T05:58:33.894Z,11.70
2022-10-18T06:01:01.833Z,11.72
2022-10-18T06:03:28.517Z,11.66
2022-10-18T06:06:08.630Z,11.67
2022-10-18T06:08:35.813Z,11.66
2022-10-18T06:11:15.222Z,11.66
2022-10-18T06:13:46.768Z,11.68
2022-10-18T06:16:17.207Z,11.79
2022-10-18T06:18:43.944Z,11.90
2022-10-18T06:21:10.549Z,11.95
2022-10-18T06:23:39.553Z,12.05
2022-10-18T06:26:10.086Z,12.21
2022-10-18T06:28:38.918Z,12.31
2022-10-18T06:31:06.328Z,12.39
2022-10-18T06:33:37.013Z,12.54
2022-10-18T06:36:05.212Z,12.62
2022-10-18T06:38:32.385Z,12.58
2022-10-18T06:40:59.955Z,12.78
2022-10-18T06:43:26.972Z,12.82
2022-10-18T06:45:53.814Z,12.89
2022-10-18T06:48:23.325Z,13.04
2022-10-18T06:51:01.092Z,13.11
2022-10-18T06:53:30.180Z,13.29
2022-10-18T06:56:06.433Z,13.46
2022-10-18T06:58:35.528Z,13.57
2022-10-18T07:01:08.169Z,13.61
2022-10-18T07:03:35.305Z,13.64
2022-10-18T07:06:06.060Z,13.81
2022-10-18T07:08:35.958Z,13.95
2022-10-18T07:11:05.596Z,13.84
2022-10-18T07:13:34.914Z,13.98
2022-10-18T07:16:01.474Z,14.07
2022-10-18T07:18:28.122Z,14.14
2022-10-18T07:20:56.772Z,14.14
2022-10-18T07:23:24.060Z,14.13
2022-10-18T07:25:51.322Z,14.28
2022-10-18T07:28:20.876Z,14.23
2022-10-18T07:30:47.415Z,14.21
2022-10-18T07:33:14.190Z,14.12
2022-10-18T07:35:40.755Z,14.25
2022-10-18T07:38:07.303Z,14.32
2022-10-18T07:40:36.157Z,14.41
2022-10-18T07:43:04.681Z,14.50
2022-10-18T07:45:34.952Z,14.52
2022-10-18T07:48:03.873Z,14.58
2022-10-18T07:50:33.258Z,14.66
2022-10-18T07:53:02.522Z,14.76
2022-10-18T07:55:29.134Z,14.79
2022-10-18T07:58:02.517Z,14.82
2022-10-18T08:00:29.043Z,14.87
2022-10-18T08:02:59.989Z,14.88
2022-10-18T08:05:27.544Z,14.86
2022-10-18T08:07:56.979Z,14.91
2022-10-18T08:10:26.805Z,14.92
2022-10-18T08:12:55.981Z,15.02
2022-10-18T08:15:25.702Z,15.11
2022-10-18T08:17:54.830Z,15.12
2022-10-18T08:20:30.529Z,15.16
2022-10-18T08:23:00.521Z,15.19
2022-10-18T08:25:27.711Z,15.27
2022-10-18T08:27:57.048Z,15.33
2022-10-18T08:30:28.402Z,15.29
2022-10-18T08:32:59.741Z,15.37
2022-10-18T08:35:26.379Z,15.51
2022-10-18T08:37:57.825Z,15.56
2022-10-18T08:40:27.663Z,15.56
2022-10-18T08:43:09.235Z,15.62
2022-10-18T08:45:43.319Z,15.65
2022-10-18T08:48:50.120Z,15.70
2022-10-18T08:51:31.460Z,15.67
2022-10-18T08:54:11.103Z,15.84
2022-10-18T08:56:39.484Z,15.90
2022-10-18T08:59:11.259Z,16.00
2022-10-18T09:01:52.908Z,16.04
2022-10-18T09:04:33.515Z,16.12
2022-10-18T09:07:37.669Z,16.15
2022-10-18T09:10:39.692Z,16.19
2022-10-18T09:13:26.570Z,16.06
2022-10-18T09:16:05.079Z,16.13
2022-10-18T09:19:04.426Z,16.19
2022-10-18T09:21:51.287Z,16.28
2022-10-18T09:24:24.825Z,16.29
2022-10-18T09:26:57.913Z,16.28
2022-10-18T09:29:37.930Z,16.37
2022-10-18T09:32:04.783Z,16.45
2022-10-18T09:34:53.874Z,16.59
2022-10-18T09:37:23.865Z,16.66
2022-10-18T09:40:18.041Z,16.79
2022-10-18T09:43:05.843Z,16.78
2022-10-18T09:45:38.585Z,16.90
2022-10-18T09:48:32.781Z,16.99
2022-10-18T09:51:11.380Z,17.00
2022-10-18T09:53:51.529Z,17.16
2022-10-18T09:56:23.790Z,17.31
2022-10-18T09:58:51.610Z,17.34
2022-10-18T10:01:25.939Z,17.37
2022-10-18T10:03:53.105Z,17.62
2022-10-18T10:06:29.207Z,17.68
2022-10-18T10:09:19.306Z,17.88
2022-10-18T10:11:51.186Z,17.95
2022-10-18T10:14:26.735Z,18.12
2022-10-18T10:16:53.243Z,18.22
2022-10-18T10:19:27.542Z,18.26
2022-10-18T10:22:07.461Z,18.31
2022-10-18T10:24:56.683Z,18.37
2022-10-18T10:27:32.011Z,18.46
2022-10-18T10:30:07.237Z,18.56
2022-10-18T10:32:48.821Z,18.57
2022-10-18T10:35:41.552Z,18.66
2022-10-18T10:38:24.244Z,18.82
2022-10-18T10:40:51.172Z,18.83
2022-10-18T10:43:37.675Z,18.78
2022-10-18T10:46:19.275Z,18.91
2022-10-18T10:49:00.383Z,18.91
2022-10-18T10:51:42.628Z,19.03
2022-10-18T10:54:24.335Z,19.13
2022-10-18T10:57:12.445Z,19.18
2022-10-18T10:59:50.798Z,19.28
2022-10-18T11:02:32.220Z,19.36
2022-10-18T11:05:40.388Z,19.31
2022-10-18T11:08:13.295Z,19.31
2022-10-18T11:10:53.467Z,19.43
2022-10-18T11:13:35.735Z,19.36
2022-10-18T11:16:12.554Z,19.61
2022-10-18T11:18:43.895Z,19.63
2022-10-18T11:21:31.815Z,19.65
2022-10-18T11:24:02.054Z,19.57
2022-10-18T11:26:48.861Z,19.37
2022-10-18T11:30:02.773Z,19.24
2022-10-18T11:32:47.876Z,19.37
2022-10-18T11:35:31.304Z,19.32
2022-10-18T11:38:05.184Z,19.37
2022-10-18T11:40:40.727Z,19.54
2022-10-18T11:43:20.176Z,19.61
2022-10-18T11:45:57.951Z,19.62
2022-10-18T11:49:19.181Z,19.40
2022-10-18T11:52:07.963Z,19.40
2022-10-18T11:55:03.122Z,19.50
2022-10-18T11:57:36.088Z,19.59
2022-10-18T12:00:17.828Z,19.68
2022-10-18T12:02:59.614Z,19.74
2022-10-18T12:05:29.917Z,19.63
2022-10-18T12:08:07.961Z,19.68
2022-10-18T12:10:46.066Z,19.84
2022-10-18T12:13:41.142Z,19.84
2022-10-18T12:16:09.351Z,19.87
2022-10-18T12:18:43.394Z,19.87
2022-10-18T12:21:12.779Z,20.01
2022-10-18T12:23:52.015Z,19.97
2022-10-18T12:26:22.943Z,20.14
2022-10-18T12:28:54.207Z,20.08
2022-10-18T12:31:42.368Z,20.08
2022-10-18T12:34:34.423Z,20.13
2022-10-18T12:37:09.852Z,20.15
2022-10-18T12:40:05.432Z,20.23
2022-10-18T12:42:40.257Z,20.17
2022-10-18T12:45:20.661Z,20.24
2022-10-18T12:47:47.315Z,20.38
2022-10-18T12:50:36.987Z,20.40
2022-10-18T12:53:09.817Z,20.21
2022-10-18T12:55:51.954Z,20.29
2022-10-18T12:58:23.967Z,20.25
2022-10-18T13:00:50.473Z,20.21
2022-10-18T13:03:17.363Z,20.18
2022-10-18T13:06:00.718Z,20.21
2022-10-18T13:08:30.400Z,20.31
2022-10-18T13:11:09.411Z,20.27
2022-10-18T13:13:54.888Z,20.46
2022-10-18T13:16:47.985Z,20.50
2022-10-18T13:19:18.763Z,20.56
2022-10-18T13:22:05.504Z,20.52
2022-10-18T13:24:45.543Z,20.49
2022-10-18T13:27:35.880Z,20.50
2022-10-18T13:30:23.227Z,20.48
2022-10-18T13:32:55.545Z,20.53
2022-10-18T13:35:55.527Z,20.51
2022-10-18T13:38:43.720Z,20.58
2022-10-18T13:41:43.710Z,20.61
2022-10-18T13:44:39.930Z,20.63
2022-10-18T13:47:07.026Z,20.57
2022-10-18T13:49:39.657Z,20.54
2022-10-18T13:52:17.489Z,20.48
2022-10-18T13:55:20.638Z,20.49
2022-10-18T13:57:53.151Z,20.54
2022-10-18T14:00:44.914Z,20.46
2022-10-18T14:06:28.354Z,20.45
2022-10-18T14:09:25.522Z,20.47
2022-10-18T14:12:28.657Z,20.37
2022-10-18T14:15:23.326Z,20.35
2022-10-18T14:17:58.156Z,20.42
2022-10-18T14:20:29.861Z,20.41
2022-10-18T14:23:19.025Z,20.52
2022-10-18T14:25:46.057Z,20.48
2022-10-18T14:28:21.666Z,20.41
2022-10-18T14:30:58.941Z,20.50
2022-10-18T14:33:27.471Z,20.59
2022-10-18T14:36:20.386Z,20.45
2022-10-18T14:38:58.975Z,20.43
2022-10-18T14:41:27.409Z,20.45
2022-10-18T14:44:16.776Z,20.33
2022-10-18T14:46:44.417Z,20.27
2022-10-18T14:49:14.534Z,20.13
2022-10-18T14:51:44.017Z,20.05
2022-10-18T14:54:23.125Z,20.11
2022-10-18T14:56:54.049Z,20.08
2022-10-18T14:59:28.545Z,20.03
2022-10-18T15:02:23.869Z,19.99
2022-10-18T15:05:10.233Z,19.94
2022-10-18T15:07:37.281Z,19.86
2022-10-18T15:10:05.567Z,19.87
2022-10-18T15:12:37.009Z,19.81
2022-10-18T15:15:24.400Z,19.83
2022-10-18T15:17:52.415Z,19.71
2022-10-18T15:20:34.160Z,19.61
2022-10-18T15:23:31.353Z,19.47
2022-10-18T15:26:09.788Z,19.50
2022-10-18T15:28:51.215Z,19.38
2022-10-18T15:31:29.561Z,19.48
2022-10-18T15:34:10.622Z,19.51
2022-10-18T15:36:38.079Z,19.58
2022-10-18T15:39:18.151Z,19.57
2022-10-18T15:41:57.201Z,19.57
2022-10-18T15:44:34.655Z,19.51
2022-10-18T15:47:21.095Z,19.42
2022-10-18T15:49:58.841Z,19.37
2022-10-18T15:52:39.530Z,19.24
2022-10-18T15:55:30.956Z,19.27
2022-10-18T15:58:05.979Z,19.22
2022-10-18T16:00:35.038Z,19.08
2022-10-18T16:03:01.600Z,19.01
2022-10-18T16:05:28.172Z,18.85
2022-10-18T16:07:57.440Z,18.75
2022-10-18T16:10:28.786Z,18.66
2022-10-18T16:12:57.714Z,18.54
2022-10-18T16:15:24.444Z,18.46
2022-10-18T16:17:58.251Z,18.40
2022-10-18T16:20:25.351Z,18.30
2022-10-18T16:22:52.068Z,18.19
2022-10-18T16:25:20.894Z,18.06
2022-10-18T16:27:47.487Z,18.04
2022-10-18T16:30:23.478Z,18.07
2022-10-18T16:32:52.251Z,18.08
2022-10-18T16:35:18.784Z,18.10
2022-10-18T16:37:48.131Z,18.18
2022-10-18T16:40:23.346Z,18.24
2022-10-18T16:42:49.942Z,18.18
2022-10-18T16:45:16.781Z,17.77
2022-10-18T16:47:45.604Z,17.73
2022-10-18T16:50:18.798Z,17.67
2022-10-18T16:52:48.320Z,17.58
2022-10-18T16:55:17.285Z,17.56
2022-10-18T16:57:44.114Z,17.58
2022-10-18T17:00:28.746Z,17.61
2022-10-18T17:02:57.621Z,17.60
2022-10-18T17:05:24.276Z,17.65
2022-10-18T17:07:50.917Z,17.66
2022-10-18T17:10:24.363Z,17.45
2022-10-18T17:12:51.807Z,17.31
2022-10-18T17:15:23.868Z,17.25
2022-10-18T17:17:52.793Z,17.03
2022-10-18T17:20:26.055Z,16.97
2022-10-18T17:22:57.335Z,16.85
2022-10-18T17:25:24.313Z,16.87
2022-10-18T17:27:50.973Z,16.62
2022-10-18T17:30:22.376Z,16.74
2022-10-18T17:32:48.963Z,16.65
2022-10-18T17:35:15.516Z,16.58
2022-10-18T17:37:45.302Z,16.56
2022-10-18T17:40:14.881Z,16.40
2022-10-18T17:42:41.539Z,16.35
2022-10-18T17:45:09.025Z,16.40
2022-10-18T17:47:37.894Z,16.43
2022-10-18T17:50:07.405Z,16.35
2022-10-18T17:52:34.065Z,16.30
2022-10-18T17:55:01.052Z,16.23
2022-10-18T17:57:27.709Z,16.21
2022-10-18T18:00:03.070Z,16.21
2022-10-18T18:02:32.138Z,16.37
2022-10-18T18:04:59.429Z,16.34
2022-10-18T18:07:25.929Z,16.30
2022-10-18T18:09:54.839Z,16.13
2022-10-18T18:12:21.511Z,16.09
2022-10-18T18:14:51.128Z,15.99
2022-10-18T18:17:24.785Z,15.92
2022-10-18T18:20:03.140Z,15.88
2022-10-18T18:22:30.206Z,15.83
2022-10-18T18:24:56.992Z,15.75
2022-10-18T18:27:26.031Z,15.76
2022-10-18T18:29:57.325Z,15.77
2022-10-18T18:32:26.211Z,15.77
2022-10-18T18:34:55.064Z,15.91
2022-10-18T18:37:21.742Z,15.77
2022-10-18T18:39:48.418Z,15.72
2022-10-18T18:42:15.364Z,15.68
2022-10-18T18:44:45.861Z,15.62
2022-10-18T18:47:21.598Z,15.45
2022-10-18T18:49:48.660Z,15.33
2022-10-18T18:52:15.355Z,15.39
2022-10-18T18:54:47.238Z,15.37
2022-10-18T18:57:13.760Z,15.37
2022-10-18T18:59:40.287Z,15.29
2022-10-18T19:02:06.876Z,15.14
2022-10-18T19:04:35.081Z,15.02
2022-10-18T19:07:01.993Z,15.18
2022-10-18T19:09:31.809Z,15.22
2022-10-18T19:12:00.663Z,15.26
2022-10-18T19:14:29.045Z,15.18
2022-10-18T19:16:59.648Z,15.14
2022-10-18T19:19:31.081Z,15.09
2022-10-18T19:22:03.659Z,15.11
2022-10-18T19:24:34.933Z,15.06
2022-10-18T19:27:04.670Z,15.09
2022-10-18T19:29:36.425Z,15.05
2022-10-18T19:32:07.107Z,14.96
2022-10-18T19:34:39.315Z,14.87
2022-10-18T19:37:09.866Z,14.81
2022-10-18T19:39:36.690Z,14.73
2022-10-18T19:42:06.351Z,14.74
2022-10-18T19:44:35.909Z,14.73
2022-10-18T19:47:04.250Z,14.69
2022-10-18T19:49:30.823Z,14.65
2022-10-18T19:51:57.538Z,14.68
2022-10-18T19:54:24.998Z,14.67
2022-10-18T19:56:51.683Z,14.61
2022-10-18T19:59:19.099Z,14.55
2022-10-18T20:01:46.262Z,14.35
2022-10-18T20:04:15.073Z,14.36
2022-10-18T20:06:42.354Z,14.56
2022-10-18T20:09:13.433Z,14.62
2022-10-18T20:11:42.841Z,14.58
2022-10-18T20:14:11.863Z,14.56
2022-10-18T20:16:38.449Z,14.48
2022-10-18T20:19:07.629Z,14.56
2022-10-18T20:21:35.996Z,14.53
2022-10-18T20:24:05.534Z,14.55
2022-10-18T20:26:32.550Z,14.51
2022-10-18T20:29:00.390Z,14.47
2022-10-18T20:31:32.706Z,14.41
2022-10-18T20:34:03.760Z,14.39
2022-10-18T20:36:31.962Z,14.30
2022-10-18T20:38:59.376Z,14.29
2022-10-18T20:41:31.701Z,14.40
2022-10-18T20:44:02.987Z,14.38
2022-10-18T20:46:33.682Z,14.34
2022-10-18T20:49:02.979Z,14.29
2022-10-18T20:51:29.554Z,14.22
2022-10-18T20:53:56.282Z,14.29
2022-10-18T20:56:27.412Z,14.23
2022-10-18T20:58:56.208Z,14.15
2022-10-18T21:01:25.535Z,14.09
2022-10-18T21:03:56.740Z,14.05
2022-10-18T21:06:30.888Z,13.98
2022-10-18T21:09:06.156Z,13.91
2022-10-18T21:11:37.376Z,13.59
2022-10-18T21:14:04.985Z,13.68
2022-10-18T21:16:33.457Z,13.66
2022-10-18T21:19:08.815Z,13.70
2022-10-18T21:21:35.780Z,13.57
2022-10-18T21:24:05.413Z,13.54
2022-10-18T21:26:34.760Z,13.42
2022-10-18T21:29:01.506Z,13.41
2022-10-18T21:31:31.151Z,13.52
2022-10-18T21:34:00.782Z,13.54
2022-10-18T21:36:30.826Z,13.54
2022-10-18T21:38:59.821Z,13.49
2022-10-18T21:41:28.680Z,13.51
2022-10-18T21:43:55.297Z,13.49
2022-10-18T21:46:24.417Z,13.52
2022-10-18T21:48:53.523Z,13.56
2022-10-18T21:51:24.249Z,13.52
2022-10-18T21:53:55.613Z,13.52
2022-10-18T21:56:25.241Z,13.53
2022-10-18T21:58:51.826Z,13.48
2022-10-18T22:01:19.934Z,13.49
2022-10-18T22:03:48.984Z,13.37
2022-10-18T22:06:18.815Z,13.38
2022-10-18T22:08:52.449Z,13.38
2022-10-18T22:11:24.370Z,13.37
2022-10-18T22:13:53.955Z,13.32
2022-10-18T22:16:21.404Z,13.25
2022-10-18T22:18:48.870Z,13.10
2022-10-18T22:21:17.953Z,13.17
2022-10-18T22:23:57.115Z,13.18
2022-10-18T22:26:34.762Z,13.17
2022-10-18T22:29:06.592Z,13.15
2022-10-18T22:31:38.248Z,13.15
2022-10-18T22:34:07.768Z,13.19
2022-10-18T22:36:35.117Z,13.19
2022-10-18T22:39:08.038Z,13.21
2022-10-18T22:41:36.106Z,13.12
2022-10-18T22:44:03.950Z,13.18
2022-10-18T22:46:33.992Z,13.15
2022-10-18T22:49:03.120Z,13.10
2022-10-18T22:54:07.893Z,12.73
2022-10-18T22:56:34.911Z,12.64
2022-10-18T22:59:03.708Z,12.67
2022-10-18T23:01:32.677Z,12.51
2022-10-18T23:04:01.381Z,12.66
2022-10-18T23:06:33.425Z,12.59
2022-10-18T23:09:03.009Z,12.57
2022-10-18T23:11:32.630Z,12.52
2022-10-18T23:14:03.719Z,12.52
2022-10-18T23:16:30.397Z,12.60
2022-10-18T23:18:58.269Z,12.65
2022-10-18T23:21:28.335Z,12.61
2022-10-18T23:23:57.930Z,12.66
2022-10-18T23:26:26.682Z,12.66
2022-10-18T23:28:54.176Z,12.55
2022-10-18T23:31:26.962Z,12.56
2022-10-18T23:33:55.527Z,12.54
2022-10-18T23:36:23.302Z,12.60
2022-10-18T23:38:50.256Z,12.56
2022-10-18T23:41:17.998Z,12.48
2022-10-18T23:43:47.576Z,12.46
2022-10-18T23:46:15.979Z,12.45
2022-10-18T23:48:46.039Z,12.44
2022-10-18T23:51:12.600Z,12.33
2022-10-18T23:53:39.287Z,12.40
2022-10-18T23:56:16.106Z,12.41
2022-10-18T23:58:43.926Z,12.42
